createdAt,value
2023-02-07T00:00:54.751Z,1.30
2023-02-07T00:01:57.507Z,1.30
2023-02-07T00:02:59.301Z,1.30
2023-02-07T00:04:02.585Z,1.29
2023-02-07T00:05:04.791Z,1.26
2023-02-07T00:06:08.689Z,1.24
2023-02-07T00:07:11.520Z,1.25
2023-02-07T00:08:15.073Z,1.21
2023-02-07T00:09:18.060Z,1.19
2023-02-07T00:10:19.847Z,1.18
2023-02-07T00:11:23.410Z,1.13
2023-02-07T00:12:25.126Z,1.14
2023-02-07T00:13:29.166Z,1.14
2023-02-07T00:14:31.838Z,1.13
2023-02-07T00:15:33.621Z,1.11
2023-02-07T00:16:36.410Z,1.12
2023-02-07T00:17:38.161Z,1.11
2023-02-07T00:18:41.412Z,1.08
2023-02-07T00:19:43.069Z,1.11
2023-02-07T00:20:45.795Z,1.09
2023-02-07T00:21:47.578Z,1.06
2023-02-07T00:22:50.278Z,1.02
2023-02-07T00:23:52.437Z,1.02
2023-02-07T00:24:55.128Z,1.00
2023-02-07T00:25:56.980Z,0.99
2023-02-07T00:27:01.889Z,0.97
2023-02-07T00:28:03.920Z,0.93
2023-02-07T00:29:08.025Z,0.92
2023-02-07T00:30:10.666Z,0.89
2023-02-07T00:31:15.007Z,0.86
2023-02-07T00:32:16.933Z,0.83
2023-02-07T00:33:19.710Z,0.83
2023-02-07T00:34:21.374Z,0.81
2023-02-07T00:35:24.066Z,0.79
2023-02-07T00:36:27.902Z,0.78
2023-02-07T00:37:30.610Z,0.77
2023-02-07T00:38:32.497Z,0.74
2023-02-07T00:39:35.262Z,0.72
2023-02-07T00:40:36.969Z,0.73
2023-02-07T00:41:39.893Z,0.72
2023-02-07T00:42:41.600Z,0.72
2023-02-07T00:43:44.370Z,0.71
2023-02-07T00:44:47.395Z,0.67
2023-02-07T00:45:50.111Z,0.68
2023-02-07T00:46:51.896Z,0.66
2023-02-07T00:47:54.565Z,0.65
2023-02-07T00:48:56.566Z,0.65
2023-02-07T00:49:59.295Z,0.65
2023-02-07T00:51:01.268Z,0.64
2023-02-07T00:52:04.060Z,0.63
2023-02-07T00:53:05.909Z,0.62
2023-02-07T00:54:08.758Z,0.61
2023-02-07T00:55:10.472Z,0.63
2023-02-07T00:56:13.720Z,0.63
2023-02-07T00:57:15.460Z,0.62
2023-02-07T00:58:18.359Z,0.58
2023-02-07T00:59:20.098Z,0.61
2023-02-07T01:00:24.141Z,0.62
2023-02-07T01:01:27.517Z,0.61
2023-02-07T01:02:30.274Z,0.62
2023-02-07T01:03:32.152Z,0.61
2023-02-07T01:04:35.004Z,0.62
2023-02-07T01:05:37.406Z,0.63
2023-02-07T01:06:40.251Z,0.64
2023-02-07T01:07:41.962Z,0.67
2023-02-07T01:08:44.711Z,0.69
2023-02-07T01:09:46.389Z,0.70
2023-02-07T01:10:49.363Z,0.69
2023-02-07T01:11:51.090Z,0.67
2023-02-07T01:12:54.098Z,0.67
2023-02-07T01:13:55.858Z,0.68
2023-02-07T01:14:59.950Z,0.68
2023-02-07T01:16:03.112Z,0.67
2023-02-07T01:17:05.872Z,0.67
2023-02-07T01:18:08.392Z,0.66
2023-02-07T01:19:12.313Z,0.64
2023-02-07T01:20:15.181Z,0.65
2023-02-07T01:21:19.082Z,0.65
2023-02-07T01:22:20.746Z,0.64
2023-02-07T01:23:23.479Z,0.66
2023-02-07T01:24:25.211Z,0.66
2023-02-07T01:25:28.011Z,0.62
2023-02-07T01:26:29.805Z,0.65
2023-02-07T01:27:32.805Z,0.66
2023-02-07T01:28:34.533Z,0.64
2023-02-07T01:29:37.165Z,0.66
2023-02-07T01:30:39.948Z,0.66
2023-02-07T01:31:44.228Z,0.67
2023-02-07T01:32:46.108Z,0.66
2023-02-07T01:33:49.041Z,0.67
2023-02-07T01:34:50.875Z,0.68
2023-02-07T01:35:53.584Z,0.64
2023-02-07T01:36:55.272Z,0.64
2023-02-07T01:37:59.308Z,0.67
2023-02-07T01:39:03.886Z,0.70
2023-02-07T01:40:06.392Z,0.72
2023-02-07T01:41:09.904Z,0.75
2023-02-07T01:42:14.086Z,0.76
2023-02-07T01:43:18.986Z,0.76
2023-02-07T01:44:58.041Z,0.78
2023-02-07T01:46:00.774Z,0.80
2023-02-07T01:47:03.910Z,0.82
2023-02-07T01:48:09.603Z,0.82
2023-02-07T01:49:12.798Z,0.83
2023-02-07T01:50:15.589Z,0.85
2023-02-07T01:51:17.716Z,0.87
2023-02-07T01:52:23.240Z,0.91
2023-02-07T01:53:26.057Z,0.92
2023-02-07T01:54:31.969Z,0.96
2023-02-07T01:55:37.042Z,0.99
2023-02-07T01:56:44.305Z,1.02
2023-02-07T01:57:46.085Z,1.03
2023-02-07T01:58:48.864Z,1.06
2023-02-07T01:59:52.396Z,1.05
2023-02-07T02:00:55.961Z,1.04
2023-02-07T02:01:59.100Z,1.06
2023-02-07T02:03:03.539Z,1.04
2023-02-07T02:04:05.456Z,1.06
2023-02-07T02:05:09.558Z,1.07
2023-02-07T02:06:12.386Z,1.07
2023-02-07T02:07:15.381Z,1.09
2023-02-07T02:08:17.108Z,1.08
2023-02-07T02:09:19.892Z,1.10
2023-02-07T02:10:24.770Z,1.12
2023-02-07T02:11:54.259Z,1.11
2023-02-07T02:13:10.638Z,1.11
2023-02-07T02:14:20.022Z,1.14
2023-02-07T02:15:42.429Z,1.16
2023-02-07T02:16:58.910Z,1.16
2023-02-07T02:18:21.141Z,1.17
2023-02-07T02:20:00.283Z,1.17
2023-02-07T02:21:52.826Z,1.15
2023-02-07T02:23:12.189Z,1.12
2023-02-07T02:24:50.466Z,1.12
2023-02-07T02:26:22.144Z,1.08
2023-02-07T02:27:35.928Z,1.08
2023-02-07T02:29:06.445Z,1.08
2023-02-07T02:30:37.782Z,1.08
2023-02-07T02:32:03.863Z,1.08
2023-02-07T02:33:19.446Z,1.08
2023-02-07T02:34:26.719Z,1.10
2023-02-07T02:35:33.734Z,1.11
2023-02-07T02:36:44.459Z,1.09
2023-02-07T02:37:49.002Z,1.08
2023-02-07T02:38:55.490Z,1.08
2023-02-07T02:40:05.877Z,1.08
2023-02-07T02:41:11.662Z,1.08
2023-02-07T02:42:18.674Z,1.08
2023-02-07T02:43:29.170Z,1.06
2023-02-07T02:44:33.482Z,1.05
2023-02-07T02:45:40.769Z,1.04
2023-02-07T02:46:43.038Z,1.04
2023-02-07T02:47:47.934Z,1.04
2023-02-07T02:48:51.531Z,1.04
2023-02-07T02:49:54.290Z,1.03
2023-02-07T02:50:56.058Z,1.02
2023-02-07T02:51:58.862Z,1.01
2023-02-07T02:53:00.534Z,0.99
2023-02-07T02:54:03.530Z,0.98
2023-02-07T02:55:05.757Z,0.95
2023-02-07T02:56:29.686Z,0.93
2023-02-07T02:57:53.398Z,0.87
2023-02-07T02:59:03.860Z,0.86
2023-02-07T03:00:44.254Z,0.82
2023-02-07T03:01:54.075Z,0.78
2023-02-07T03:03:12.420Z,0.76
2023-02-07T03:04:28.938Z,0.74
2023-02-07T03:05:43.335Z,0.71
2023-02-07T03:06:54.980Z,0.69
2023-02-07T03:08:04.636Z,0.69
2023-02-07T03:09:15.268Z,0.66
2023-02-07T03:10:27.000Z,0.63
2023-02-07T03:11:30.989Z,0.61
2023-02-07T03:12:35.928Z,0.59
2023-02-07T03:13:43.543Z,0.57
2023-02-07T03:14:52.984Z,0.54
2023-02-07T03:16:04.066Z,0.54
2023-02-07T03:17:13.572Z,0.50
2023-02-07T03:18:18.311Z,0.48
2023-02-07T03:19:25.265Z,0.45
2023-02-07T03:20:30.445Z,0.44
2023-02-07T03:21:36.337Z,0.42
2023-02-07T03:22:38.771Z,0.39
2023-02-07T03:23:41.943Z,0.38
2023-02-07T03:24:46.719Z,0.35
2023-02-07T03:25:49.386Z,0.36
2023-02-07T03:26:54.544Z,0.36
2023-02-07T03:27:56.410Z,0.33
2023-02-07T03:28:59.634Z,0.33
2023-02-07T03:30:05.076Z,0.33
2023-02-07T03:31:08.724Z,0.32
2023-02-07T03:32:11.852Z,0.30
2023-02-07T03:33:15.997Z,0.28
2023-02-07T03:34:20.786Z,0.27
2023-02-07T03:35:27.628Z,0.25
2023-02-07T03:36:31.640Z,0.25
2023-02-07T03:37:36.933Z,0.24
2023-02-07T03:38:38.978Z,0.24
2023-02-07T03:39:41.766Z,0.22
2023-02-07T03:40:44.963Z,0.21
2023-02-07T03:41:50.587Z,0.20
2023-02-07T03:42:55.059Z,0.20
2023-02-07T03:43:59.286Z,0.19
2023-02-07T03:45:02.418Z,0.19
2023-02-07T03:46:05.174Z,0.17
2023-02-07T03:47:07.080Z,0.16
2023-02-07T03:48:10.023Z,0.14
2023-02-07T03:49:11.895Z,0.14
2023-02-07T03:50:15.239Z,0.11
2023-02-07T03:51:18.313Z,0.11
2023-02-07T03:52:21.247Z,0.10
2023-02-07T03:53:22.969Z,0.09
2023-02-07T03:54:25.717Z,0.08
2023-02-07T03:55:27.812Z,0.05
2023-02-07T03:56:30.567Z,0.05
2023-02-07T03:57:32.542Z,0.01
2023-02-07T03:58:35.262Z,0.01
2023-02-07T03:59:37.039Z,-0.01
2023-02-07T04:00:39.820Z,-0.02
2023-02-07T04:01:42.602Z,-0.02
2023-02-07T04:02:45.409Z,-0.03
2023-02-07T04:03:47.072Z,-0.05
2023-02-07T04:04:50.080Z,-0.07
2023-02-07T04:05:51.747Z,-0.08
2023-02-07T04:06:56.057Z,-0.08
2023-02-07T04:07:57.907Z,-0.09
2023-02-07T04:09:00.608Z,-0.10
2023-02-07T04:10:02.833Z,-0.11
2023-02-07T04:11:05.949Z,-0.13
2023-02-07T04:12:07.810Z,-0.14
2023-02-07T04:13:10.492Z,-0.14
2023-02-07T04:14:12.556Z,-0.13
2023-02-07T04:15:15.298Z,-0.16
2023-02-07T04:16:17.129Z,-0.17
2023-02-07T04:17:19.935Z,-0.19
2023-02-07T04:18:21.645Z,-0.21
2023-02-07T04:19:24.344Z,-0.23
2023-02-07T04:20:26.101Z,-0.26
2023-02-07T04:21:28.792Z,-0.29
2023-02-07T04:22:32.180Z,-0.31
2023-02-07T04:23:35.393Z,-0.32
2023-02-07T04:24:37.154Z,-0.34
2023-02-07T04:25:39.983Z,-0.39
2023-02-07T04:26:41.890Z,-0.43
2023-02-07T04:27:44.733Z,-0.44
2023-02-07T04:28:46.439Z,-0.47
2023-02-07T04:29:49.228Z,-0.49
2023-02-07T04:30:51.300Z,-0.50
2023-02-07T04:31:54.278Z,-0.53
2023-02-07T04:32:56.021Z,-0.56
2023-02-07T04:33:58.699Z,-0.59
2023-02-07T04:35:00.478Z,-0.61
2023-02-07T04:36:04.341Z,-0.63
2023-02-07T04:37:07.038Z,-0.64
2023-02-07T04:38:10.296Z,-0.66
2023-02-07T04:39:12.965Z,-0.65
2023-02-07T04:40:14.740Z,-0.67
2023-02-07T04:41:17.472Z,-0.68
2023-02-07T04:42:20.170Z,-0.67
2023-02-07T04:43:21.839Z,-0.68
2023-02-07T04:44:26.006Z,-0.68
2023-02-07T04:45:28.567Z,-0.67
2023-02-07T04:46:31.246Z,-0.67
2023-02-07T04:47:32.978Z,-0.67
2023-02-07T04:48:37.509Z,-0.68
2023-02-07T04:49:39.258Z,-0.67
2023-02-07T04:50:41.977Z,-0.67
2023-02-07T04:51:43.694Z,-0.66
2023-02-07T04:52:46.638Z,-0.67
2023-02-07T04:53:49.795Z,-0.66
2023-02-07T04:54:52.483Z,-0.64
2023-02-07T04:55:55.138Z,-0.67
2023-02-07T04:56:57.930Z,-0.70
2023-02-07T04:57:59.698Z,-0.72
2023-02-07T04:59:02.620Z,-0.73
2023-02-07T05:00:06.156Z,-0.74
2023-02-07T05:01:07.991Z,-0.74
2023-02-07T05:02:10.680Z,-0.76
2023-02-07T05:03:12.753Z,-0.76
2023-02-07T05:04:15.482Z,-0.78
2023-02-07T05:05:17.314Z,-0.79
2023-02-07T05:06:20.056Z,-0.81
2023-02-07T05:07:22.269Z,-0.82
2023-02-07T05:08:26.258Z,-0.82
2023-02-07T05:09:29.635Z,-0.84
2023-02-07T05:10:32.365Z,-0.86
2023-02-07T05:11:34.137Z,-0.87
2023-02-07T05:12:36.866Z,-0.89
2023-02-07T05:13:38.693Z,-0.90
2023-02-07T05:14:41.353Z,-0.90
2023-02-07T05:15:43.133Z,-0.90
2023-02-07T05:16:45.962Z,-0.91
2023-02-07T05:17:47.810Z,-0.92
2023-02-07T05:18:50.564Z,-0.93
2023-02-07T05:19:52.431Z,-0.94
2023-02-07T05:20:55.421Z,-0.96
2023-02-07T05:21:57.107Z,-0.97
2023-02-07T05:22:59.842Z,-0.98
2023-02-07T05:24:02.563Z,-1.01
2023-02-07T05:25:06.140Z,-0.99
2023-02-07T05:26:08.864Z,-1.02
2023-02-07T05:27:10.640Z,-1.04
2023-02-07T05:28:13.332Z,-1.07
2023-02-07T05:29:15.061Z,-1.09
2023-02-07T05:30:18.038Z,-1.08
2023-02-07T05:31:20.033Z,-1.10
2023-02-07T05:32:40.542Z,-1.10
2023-02-07T05:33:43.213Z,-1.11
2023-02-07T05:34:44.924Z,-1.12
2023-02-07T05:35:47.646Z,-1.14
2023-02-07T05:36:49.355Z,-1.14
2023-02-07T05:37:52.047Z,-1.14
2023-02-07T05:38:54.065Z,-1.14
2023-02-07T05:39:56.782Z,-1.16
2023-02-07T05:41:01.093Z,-1.16
2023-02-07T05:42:02.790Z,-1.18
2023-02-07T05:43:05.719Z,-1.19
2023-02-07T05:44:07.590Z,-1.20
2023-02-07T05:45:11.039Z,-1.23
2023-02-07T05:46:12.811Z,-1.25
2023-02-07T05:47:18.339Z,-1.26
2023-02-07T05:48:20.998Z,-1.27
2023-02-07T05:49:22.756Z,-1.28
2023-02-07T05:50:25.879Z,-1.26
2023-02-07T05:51:28.133Z,-1.27
2023-02-07T05:52:30.912Z,-1.26
2023-02-07T05:53:33.596Z,-1.25
2023-02-07T05:54:35.404Z,-1.24
2023-02-07T05:55:38.482Z,-1.24
2023-02-07T05:56:41.737Z,-1.26
2023-02-07T05:57:45.305Z,-1.27
2023-02-07T05:58:47.076Z,-1.27
2023-02-07T05:59:49.777Z,-1.28
2023-02-07T06:00:52.486Z,-1.28
2023-02-07T06:01:54.150Z,-1.29
2023-02-07T06:02:56.822Z,-1.30
2023-02-07T06:03:58.617Z,-1.32
2023-02-07T06:05:01.351Z,-1.32
2023-02-07T06:06:03.264Z,-1.32
2023-02-07T06:07:06.160Z,-1.33
2023-02-07T06:08:11.857Z,-1.35
2023-02-07T06:09:13.563Z,-1.33
2023-02-07T06:10:16.490Z,-1.35
2023-02-07T06:11:18.332Z,-1.34
2023-02-07T06:12:22.367Z,-1.33
2023-02-07T06:13:24.083Z,-1.34
2023-02-07T06:14:26.818Z,-1.34
2023-02-07T06:15:28.642Z,-1.33
2023-02-07T06:16:31.428Z,-1.37
2023-02-07T06:17:33.138Z,-1.35
2023-02-07T06:18:35.783Z,-1.35
2023-02-07T06:19:37.542Z,-1.35
2023-02-07T06:20:40.228Z,-1.34
2023-02-07T06:21:46.714Z,-1.33
2023-02-07T06:22:49.764Z,-1.32
2023-02-07T06:23:51.813Z,-1.31
2023-02-07T06:24:54.554Z,-1.30
2023-02-07T06:25:57.466Z,-1.31
2023-02-07T06:26:59.205Z,-1.31
2023-02-07T06:28:03.380Z,-1.31
2023-02-07T06:29:05.273Z,-1.30
2023-02-07T06:30:09.219Z,-1.32
2023-02-07T06:31:10.994Z,-1.34
2023-02-07T06:32:13.904Z,-1.35
2023-02-07T06:33:15.706Z,-1.39
2023-02-07T06:34:18.450Z,-1.41
2023-02-07T06:35:21.177Z,-1.44
2023-02-07T06:36:22.944Z,-1.45
2023-02-07T06:37:25.768Z,-1.46
2023-02-07T06:38:27.519Z,-1.49
2023-02-07T06:39:30.268Z,-1.49
2023-02-07T06:40:32.980Z,-1.49
2023-02-07T06:41:34.737Z,-1.49
2023-02-07T06:42:37.566Z,-1.49
2023-02-07T06:43:41.039Z,-1.48
2023-02-07T06:44:43.736Z,-1.46
2023-02-07T06:45:45.510Z,-1.45
2023-02-07T06:46:48.299Z,-1.45
2023-02-07T06:47:50.083Z,-1.43
2023-02-07T06:48:52.763Z,-1.41
2023-02-07T06:49:54.510Z,-1.37
2023-02-07T06:50:57.336Z,-1.33
2023-02-07T06:52:00.104Z,-1.29
2023-02-07T06:53:02.246Z,-1.24
2023-02-07T06:54:08.583Z,-1.21
2023-02-07T06:55:11.309Z,-1.16
2023-02-07T06:56:13.064Z,-1.11
2023-02-07T06:57:15.740Z,-1.08
2023-02-07T06:58:17.488Z,-1.05
2023-02-07T06:59:23.940Z,-1.03
2023-02-07T07:00:26.652Z,-0.99
2023-02-07T07:01:28.411Z,-0.95
2023-02-07T07:02:31.313Z,-0.93
2023-02-07T07:03:34.062Z,-0.90
2023-02-07T07:04:36.767Z,-0.88
2023-02-07T07:05:38.786Z,-0.85
2023-02-07T07:06:41.670Z,-0.83
2023-02-07T07:07:44.621Z,-0.80
2023-02-07T07:08:47.268Z,-0.74
2023-02-07T07:09:50.080Z,-0.72
2023-02-07T07:10:51.806Z,-0.69
2023-02-07T07:11:54.463Z,-0.66
2023-02-07T07:12:56.386Z,-0.61
2023-02-07T07:14:00.308Z,-0.58
2023-02-07T07:15:03.545Z,-0.53
2023-02-07T07:16:06.960Z,-0.50
2023-02-07T07:17:09.670Z,-0.47
2023-02-07T07:18:11.394Z,-0.45
2023-02-07T07:19:14.146Z,-0.43
2023-02-07T07:20:16.090Z,-0.41
2023-02-07T07:21:18.853Z,-0.39
2023-02-07T07:22:21.172Z,-0.37
2023-02-07T07:23:24.272Z,-0.32
2023-02-07T07:24:27.434Z,-0.30
2023-02-07T07:25:31.638Z,-0.28
2023-02-07T07:26:48.241Z,-0.23
2023-02-07T07:27:53.557Z,-0.19
2023-02-07T07:28:58.226Z,-0.15
2023-02-07T07:30:01.446Z,-0.09
2023-02-07T07:31:07.300Z,-0.06
2023-02-07T07:32:14.394Z,-0.02
2023-02-07T07:33:22.620Z,0.02
2023-02-07T07:34:25.377Z,0.06
2023-02-07T07:35:28.731Z,0.09
2023-02-07T07:36:31.483Z,0.13
2023-02-07T07:37:34.623Z,0.15
2023-02-07T07:39:45.030Z,0.23
2023-02-07T07:40:47.816Z,0.25
2023-02-07T07:41:50.489Z,0.30
2023-02-07T07:42:55.556Z,0.35
2023-02-07T07:43:58.411Z,0.38
2023-02-07T07:45:00.195Z,0.43
2023-02-07T07:46:03.046Z,0.51
2023-02-07T07:47:06.439Z,0.62
2023-02-07T07:48:09.197Z,0.69
2023-02-07T07:49:11.961Z,0.75
2023-02-07T07:50:15.970Z,0.80
2023-02-07T07:51:18.674Z,0.82
2023-02-07T07:52:21.849Z,0.85
2023-02-07T07:53:24.579Z,0.87
2023-02-07T07:54:30.774Z,0.89
2023-02-07T07:55:35.323Z,0.91
2023-02-07T07:56:38.060Z,0.94
2023-02-07T07:57:40.805Z,0.97
2023-02-07T07:58:43.581Z,1.00
2023-02-07T07:59:45.353Z,1.03
2023-02-07T08:00:48.762Z,1.05
2023-02-07T08:01:52.132Z,1.08
2023-02-07T08:02:56.210Z,1.10
2023-02-07T08:03:58.933Z,1.13
2023-02-07T08:05:01.872Z,1.16
2023-02-07T08:06:04.960Z,1.17
2023-02-07T08:07:07.712Z,1.17
2023-02-07T08:08:10.633Z,1.20
2023-02-07T08:09:15.111Z,1.22
2023-02-07T08:10:18.135Z,1.25
2023-02-07T08:11:20.835Z,1.26
2023-02-07T08:12:23.495Z,1.27
2023-02-07T08:13:29.561Z,1.27
2023-02-07T08:14:31.654Z,1.29
2023-02-07T08:15:35.427Z,1.31
2023-02-07T08:16:38.172Z,1.34
2023-02-07T08:17:41.289Z,1.38
2023-02-07T08:18:45.396Z,1.41
2023-02-07T08:19:48.069Z,1.44
2023-02-07T08:20:51.052Z,1.44
2023-02-07T08:21:53.742Z,1.46
2023-02-07T08:22:57.578Z,1.46
2023-02-07T08:24:03.017Z,1.51
2023-02-07T08:25:06.816Z,1.54
2023-02-07T08:26:09.569Z,1.60
2023-02-07T08:27:11.285Z,1.64
2023-02-07T08:28:14.678Z,1.68
2023-02-07T08:29:16.365Z,1.72
2023-02-07T08:30:24.907Z,1.75
2023-02-07T08:31:26.745Z,1.77
2023-02-07T08:32:29.739Z,1.82
2023-02-07T08:33:32.549Z,1.85
2023-02-07T08:34:37.597Z,1.87
2023-02-07T08:35:40.514Z,1.90
2023-02-07T08:36:43.195Z,1.90
2023-02-07T08:37:44.961Z,1.93
2023-02-07T08:38:47.683Z,1.93
2023-02-07T08:39:52.699Z,1.96
2023-02-07T08:40:55.370Z,1.98
2023-02-07T08:41:58.106Z,1.99
2023-02-07T08:43:01.287Z,1.96
2023-02-07T08:44:02.989Z,1.97
2023-02-07T08:45:06.170Z,1.97
2023-02-07T08:46:08.322Z,1.98
2023-02-07T08:47:11.419Z,2.00
2023-02-07T08:48:14.160Z,2.04
2023-02-07T08:49:16.875Z,2.10
2023-02-07T08:50:21.114Z,2.15
2023-02-07T08:51:22.814Z,2.18
2023-02-07T08:52:25.695Z,2.20
2023-02-07T08:53:27.378Z,2.19
2023-02-07T08:54:30.125Z,2.21
2023-02-07T08:55:32.848Z,2.22
2023-02-07T08:56:35.590Z,2.22
2023-02-07T08:57:38.431Z,2.27
2023-02-07T08:58:40.988Z,2.33
2023-02-07T08:59:43.774Z,2.40
2023-02-07T09:00:46.649Z,2.47
2023-02-07T09:01:48.412Z,2.55
2023-02-07T09:02:51.156Z,2.60
2023-02-07T09:03:56.624Z,2.66
2023-02-07T09:04:59.348Z,2.70
2023-02-07T09:06:03.557Z,2.72
2023-02-07T09:07:06.197Z,2.75
2023-02-07T09:08:08.891Z,2.79
2023-02-07T09:09:11.718Z,2.79
2023-02-07T09:10:15.434Z,2.84
2023-02-07T09:11:17.401Z,2.81
2023-02-07T09:12:20.121Z,2.87
2023-02-07T09:13:22.843Z,2.89
2023-02-07T09:14:25.605Z,2.94
2023-02-07T09:15:28.409Z,2.94
2023-02-07T09:16:31.677Z,2.96
2023-02-07T09:17:34.382Z,2.97
2023-02-07T09:18:37.081Z,3.00
2023-02-07T09:19:39.818Z,3.05
2023-02-07T09:20:42.542Z,3.09
2023-02-07T09:21:46.721Z,3.12
2023-02-07T09:23:07.098Z,3.14
2023-02-07T09:24:09.792Z,3.11
2023-02-07T09:25:11.520Z,3.13
2023-02-07T09:26:18.355Z,3.14
2023-02-07T09:27:21.094Z,3.16
2023-02-07T09:28:23.905Z,3.19
2023-02-07T09:29:26.749Z,3.24
2023-02-07T09:30:29.475Z,3.30
2023-02-07T09:31:32.971Z,3.37
2023-02-07T09:32:35.808Z,3.43
2023-02-07T09:33:38.551Z,3.49
2023-02-07T09:34:41.302Z,3.53
2023-02-07T09:35:46.315Z,3.59
2023-02-07T09:36:51.018Z,3.63
2023-02-07T09:37:53.380Z,3.66
2023-02-07T09:38:56.786Z,3.72
2023-02-07T09:39:59.473Z,3.73
2023-02-07T09:41:02.166Z,3.77
2023-02-07T09:42:12.482Z,3.79
2023-02-07T09:43:25.827Z,3.84
2023-02-07T09:44:38.864Z,3.86
2023-02-07T09:45:42.849Z,3.91
2023-02-07T09:46:49.817Z,3.97
2023-02-07T09:47:54.810Z,4.02
2023-02-07T09:49:04.487Z,4.08
2023-02-07T09:50:09.614Z,4.13
2023-02-07T09:51:13.325Z,4.16
2023-02-07T09:52:19.924Z,4.18
2023-02-07T09:53:26.533Z,4.19
2023-02-07T09:54:31.728Z,4.25
2023-02-07T09:55:43.660Z,4.29
2023-02-07T09:56:47.862Z,4.33
2023-02-07T09:57:54.005Z,4.36
2023-02-07T09:59:01.698Z,4.39
2023-02-07T10:00:07.284Z,4.36
2023-02-07T10:01:12.911Z,4.40
2023-02-07T10:02:18.819Z,4.43
2023-02-07T10:03:23.116Z,4.46
2023-02-07T10:04:31.204Z,4.49
2023-02-07T10:05:38.578Z,4.53
2023-02-07T10:06:42.459Z,4.57
2023-02-07T10:07:48.536Z,4.59
2023-02-07T10:08:55.373Z,4.63
2023-02-07T10:09:58.082Z,4.64
2023-02-07T10:11:11.327Z,4.64
2023-02-07T10:12:27.100Z,4.66
2023-02-07T10:13:53.630Z,4.67
2023-02-07T10:15:13.916Z,4.73
2023-02-07T10:16:24.019Z,4.78
2023-02-07T10:17:39.198Z,4.83
2023-02-07T10:18:45.764Z,4.89
2023-02-07T10:19:55.616Z,4.95
2023-02-07T10:21:02.575Z,4.97
2023-02-07T10:22:16.834Z,5.03
2023-02-07T10:23:40.928Z,5.07
2023-02-07T10:25:00.628Z,5.08
2023-02-07T10:26:06.464Z,5.12
2023-02-07T10:27:11.556Z,5.10
2023-02-07T10:28:45.867Z,5.16
2023-02-07T10:29:58.031Z,5.22
2023-02-07T10:31:03.789Z,5.22
2023-02-07T10:32:13.846Z,5.27
2023-02-07T10:33:19.241Z,5.25
2023-02-07T10:34:24.125Z,5.28
2023-02-07T10:35:32.845Z,5.32
2023-02-07T10:36:34.669Z,5.35
2023-02-07T10:37:39.566Z,5.35
2023-02-07T10:38:52.117Z,5.37
2023-02-07T10:40:02.637Z,5.38
2023-02-07T10:41:09.673Z,5.40
2023-02-07T10:42:15.428Z,5.42
2023-02-07T10:43:28.522Z,5.43
2023-02-07T10:44:31.364Z,5.46
2023-02-07T10:45:34.442Z,5.53
2023-02-07T10:46:37.490Z,5.57
2023-02-07T10:47:39.952Z,5.58
2023-02-07T10:48:42.908Z,5.62
2023-02-07T10:49:46.853Z,5.64
2023-02-07T10:50:49.599Z,5.67
2023-02-07T10:51:51.778Z,5.71
2023-02-07T10:52:55.640Z,5.73
2023-02-07T10:54:08.914Z,5.79
2023-02-07T10:55:13.878Z,5.83
2023-02-07T10:56:17.924Z,5.87
2023-02-07T10:57:21.619Z,5.90
2023-02-07T10:58:25.396Z,5.92
2023-02-07T10:59:35.531Z,5.99
2023-02-07T11:00:40.570Z,6.03
2023-02-07T11:01:54.060Z,6.02
2023-02-07T11:02:57.771Z,6.04
2023-02-07T11:04:00.726Z,6.04
2023-02-07T11:05:05.755Z,6.06
2023-02-07T11:06:10.247Z,6.09
2023-02-07T11:07:17.402Z,6.12
2023-02-07T11:08:23.521Z,6.16
2023-02-07T11:09:28.004Z,6.19
2023-02-07T11:10:35.078Z,6.23
2023-02-07T11:11:40.802Z,6.29
2023-02-07T11:12:46.395Z,6.34
2023-02-07T11:13:50.846Z,6.38
2023-02-07T11:15:01.720Z,6.40
2023-02-07T11:16:07.813Z,6.44
2023-02-07T11:17:20.202Z,6.45
2023-02-07T11:18:38.825Z,6.46
2023-02-07T11:19:41.624Z,6.46
2023-02-07T11:20:52.558Z,6.46
2023-02-07T11:21:59.422Z,6.47
2023-02-07T11:23:05.691Z,6.46
2023-02-07T11:24:17.230Z,6.47
2023-02-07T11:25:27.618Z,6.45
2023-02-07T11:26:30.821Z,6.46
2023-02-07T11:27:40.942Z,6.48
2023-02-07T11:28:43.813Z,6.49
2023-02-07T11:29:50.401Z,6.50
2023-02-07T11:30:56.191Z,6.51
2023-02-07T11:32:01.074Z,6.55
2023-02-07T11:33:05.788Z,6.61
2023-02-07T11:34:10.661Z,6.69
2023-02-07T11:35:20.283Z,6.71
2023-02-07T11:36:26.201Z,6.72
2023-02-07T11:37:32.394Z,6.73
2023-02-07T11:38:39.210Z,6.72
2023-02-07T11:39:41.498Z,6.73
2023-02-07T11:40:50.893Z,6.71
2023-02-07T11:42:00.973Z,6.71
2023-02-07T11:43:07.341Z,6.75
2023-02-07T11:44:17.881Z,6.79
2023-02-07T11:45:23.490Z,6.82
2023-02-07T11:46:34.454Z,6.85
2023-02-07T11:47:38.439Z,6.88
2023-02-07T11:48:41.424Z,6.91
2023-02-07T11:49:47.684Z,6.92
2023-02-07T11:50:54.129Z,6.97
2023-02-07T11:52:00.115Z,6.96
2023-02-07T11:53:04.049Z,6.96
2023-02-07T11:54:07.211Z,6.98
2023-02-07T11:55:16.481Z,6.96
2023-02-07T11:56:25.771Z,6.96
2023-02-07T11:57:31.236Z,6.95
2023-02-07T11:58:36.195Z,6.94
2023-02-07T11:59:47.468Z,6.93
2023-02-07T12:00:49.459Z,6.90
2023-02-07T12:01:59.764Z,6.92
2023-02-07T12:03:05.547Z,6.90
2023-02-07T12:04:10.796Z,6.93
2023-02-07T12:05:19.074Z,6.97
2023-02-07T12:06:23.191Z,7.00
2023-02-07T12:07:27.819Z,7.04
2023-02-07T12:08:33.234Z,7.08
2023-02-07T12:09:42.158Z,7.11
2023-02-07T12:10:47.713Z,7.16
2023-02-07T12:11:53.798Z,7.22
2023-02-07T12:13:00.009Z,7.26
2023-02-07T12:14:07.358Z,7.27
2023-02-07T12:15:15.031Z,7.26
2023-02-07T12:16:20.596Z,7.31
2023-02-07T12:17:26.807Z,7.32
2023-02-07T12:18:33.068Z,7.32
2023-02-07T12:19:36.166Z,7.33
2023-02-07T12:20:40.920Z,7.35
2023-02-07T12:21:52.470Z,7.38
2023-02-07T12:23:21.512Z,7.38
2023-02-07T12:24:27.920Z,7.43
2023-02-07T12:25:34.363Z,7.47
2023-02-07T12:26:41.565Z,7.52
2023-02-07T12:27:49.213Z,7.58
2023-02-07T12:29:13.466Z,7.61
2023-02-07T12:30:21.167Z,7.67
2023-02-07T12:31:28.611Z,7.74
2023-02-07T12:32:38.265Z,7.80
2023-02-07T12:33:45.758Z,7.83
2023-02-07T12:34:53.219Z,7.86
2023-02-07T12:36:05.091Z,7.90
2023-02-07T12:37:19.144Z,7.91
2023-02-07T12:38:25.966Z,7.94
2023-02-07T12:39:36.188Z,7.97
2023-02-07T12:40:41.686Z,7.98
2023-02-07T12:41:48.610Z,8.01
2023-02-07T12:42:57.551Z,8.05
2023-02-07T12:44:07.342Z,8.09
2023-02-07T12:45:16.512Z,8.13
2023-02-07T12:46:24.776Z,8.16
2023-02-07T12:47:38.421Z,8.19
2023-02-07T12:48:55.987Z,8.22
2023-02-07T12:50:07.767Z,8.26
2023-02-07T12:51:19.043Z,8.31
2023-02-07T12:52:28.946Z,8.36
2023-02-07T12:53:39.910Z,8.41
2023-02-07T12:54:49.811Z,8.45
2023-02-07T12:55:58.478Z,8.47
2023-02-07T12:57:07.115Z,8.48
2023-02-07T12:58:27.284Z,8.51
2023-02-07T12:59:40.416Z,8.53
2023-02-07T13:00:53.431Z,8.59
2023-02-07T13:02:04.572Z,8.60
2023-02-07T13:03:19.134Z,8.60
2023-02-07T13:04:48.790Z,8.65
2023-02-07T13:06:02.604Z,8.70
2023-02-07T13:07:16.073Z,8.75
2023-02-07T13:08:27.155Z,8.82
2023-02-07T13:09:34.544Z,8.86
2023-02-07T13:10:42.815Z,8.91
2023-02-07T13:11:56.092Z,8.98
2023-02-07T13:13:08.337Z,9.04
2023-02-07T13:14:22.915Z,9.09
2023-02-07T13:15:35.078Z,9.13
2023-02-07T13:16:40.942Z,9.12
2023-02-07T13:17:50.590Z,9.12
2023-02-07T13:18:57.694Z,9.10
2023-02-07T13:20:03.973Z,9.11
2023-02-07T13:21:15.901Z,9.07
2023-02-07T13:22:28.716Z,9.12
2023-02-07T13:23:33.476Z,9.14
2023-02-07T13:24:35.917Z,9.16
2023-02-07T13:25:41.836Z,9.20
2023-02-07T13:26:48.508Z,9.24
2023-02-07T13:27:54.111Z,9.29
2023-02-07T13:28:58.691Z,9.34
2023-02-07T13:30:02.010Z,9.35
2023-02-07T13:31:04.968Z,9.40
2023-02-07T13:32:12.663Z,9.43
2023-02-07T13:33:27.233Z,9.44
2023-02-07T13:34:32.890Z,9.45
2023-02-07T13:35:38.484Z,9.47
2023-02-07T13:36:44.160Z,9.44
2023-02-07T13:37:51.668Z,9.40
2023-02-07T13:39:03.239Z,9.41
2023-02-07T13:40:20.189Z,9.43
2023-02-07T13:41:33.992Z,9.46
2023-02-07T13:42:42.549Z,9.52
2023-02-07T13:44:08.032Z,9.56
2023-02-07T13:45:16.939Z,9.67
2023-02-07T13:46:32.172Z,9.75
2023-02-07T13:47:44.842Z,9.82
2023-02-07T13:48:52.256Z,9.86
2023-02-07T13:49:58.117Z,9.88
2023-02-07T13:51:04.657Z,9.89
2023-02-07T13:52:11.870Z,9.89
2023-02-07T13:53:26.226Z,9.91
2023-02-07T13:54:35.875Z,9.95
2023-02-07T13:55:41.218Z,9.93
2023-02-07T13:57:14.500Z,9.94
2023-02-07T13:59:13.585Z,9.94
2023-02-07T14:00:19.855Z,9.94
2023-02-07T14:01:25.475Z,10.00
2023-02-07T14:02:34.554Z,10.02
2023-02-07T14:03:37.626Z,10.07
2023-02-07T14:04:48.327Z,10.13
2023-02-07T14:05:52.500Z,10.17
2023-02-07T14:07:03.660Z,10.21
2023-02-07T14:08:07.252Z,10.21
2023-02-07T14:09:17.728Z,10.26
2023-02-07T14:10:37.039Z,10.35
2023-02-07T14:11:41.657Z,10.47
2023-02-07T14:12:49.358Z,10.60
2023-02-07T14:13:52.051Z,10.75
2023-02-07T14:15:02.598Z,10.91
2023-02-07T14:16:09.516Z,11.14
2023-02-07T14:17:15.212Z,11.41
2023-02-07T14:18:40.803Z,11.81
2023-02-07T14:19:52.373Z,12.17
2023-02-07T14:21:00.302Z,12.52
2023-02-07T14:22:15.351Z,12.83
2023-02-07T14:23:19.685Z,13.16
2023-02-07T14:24:33.187Z,13.58
2023-02-07T14:25:39.747Z,13.99
2023-02-07T14:27:01.210Z,14.43